createdAt,value
2022-08-26T00:01:56.433Z,16.70
2022-08-26T00:04:26.135Z,21.17
2022-08-26T00:06:54.978Z,19.50
2022-08-26T00:09:24.777Z,18.37
2022-08-26T00:11:53.517Z,18.10
2022-08-26T00:14:21.988Z,17.70
2022-08-26T00:16:50.392Z,16.70
2022-08-26T00:19:22.043Z,14.77
2022-08-26T00:21:51.310Z,15.40
2022-08-26T00:24:21.802Z,17.33
2022-08-26T00:26:50.917Z,17.00
2022-08-26T00:29:19.863Z,17.70
2022-08-26T00:31:49.838Z,19.43
2022-08-26T00:34:19.691Z,16.60
2022-08-26T00:36:51.747Z,18.03
2022-08-26T00:39:20.192Z,16.07
2022-08-26T00:41:48.736Z,18.93
2022-08-26T00:44:16.828Z,22.70
2022-08-26T00:46:47.367Z,19.30
2022-08-26T00:49:19.327Z,16.97
2022-08-26T00:51:52.194Z,16.70
2022-08-26T00:54:23.895Z,16.53
2022-08-26T00:56:59.904Z,17.60
2022-08-26T00:59:32.790Z,17.40
2022-08-26T01:02:02.777Z,17.33
2022-08-26T01:04:34.643Z,17.10
2022-08-26T01:07:04.983Z,17.03
2022-08-26T01:09:33.829Z,18.70
2022-08-26T01:12:04.240Z,19.83
2022-08-26T01:14:36.735Z,17.70
2022-08-26T01:17:07.210Z,16.03
2022-08-26T01:19:43.540Z,16.20
2022-08-26T01:22:18.589Z,17.53
2022-08-26T01:24:49.433Z,18.33
2022-08-26T01:27:20.648Z,16.20
2022-08-26T01:29:50.444Z,17.23
2022-08-26T01:32:22.374Z,16.33
2022-08-26T01:34:51.557Z,16.47
2022-08-26T01:37:24.807Z,15.20
2022-08-26T01:39:58.617Z,15.30
2022-08-26T01:42:28.466Z,16.63
2022-08-26T01:44:59.450Z,16.67
2022-08-26T01:47:31.122Z,17.00
2022-08-26T01:50:03.130Z,18.10
2022-08-26T01:52:34.410Z,16.80
2022-08-26T01:55:05.452Z,16.13
2022-08-26T01:57:35.748Z,16.23
2022-08-26T02:00:10.845Z,16.13
2022-08-26T02:02:38.910Z,17.77
2022-08-26T02:05:10.576Z,17.30
2022-08-26T02:07:39.807Z,19.50
2022-08-26T02:10:10.264Z,16.67
2022-08-26T02:12:39.115Z,18.23
2022-08-26T02:15:12.328Z,16.63
2022-08-26T02:17:44.535Z,16.80
2022-08-26T02:20:14.954Z,19.03
2022-08-26T02:22:43.496Z,16.77
2022-08-26T02:25:22.025Z,17.00
2022-08-26T02:27:51.494Z,19.10
2022-08-26T02:30:21.943Z,16.50
2022-08-26T02:32:51.875Z,18.80
2022-08-26T02:35:22.105Z,15.40
2022-08-26T02:37:51.188Z,16.67
2022-08-26T02:40:23.330Z,15.60
2022-08-26T02:42:53.162Z,17.37
2022-08-26T02:45:24.800Z,16.20
2022-08-26T02:47:53.265Z,16.47
2022-08-26T02:50:22.292Z,17.43
2022-08-26T02:52:50.361Z,16.67
2022-08-26T02:55:18.732Z,16.37
2022-08-26T02:57:48.308Z,17.27
2022-08-26T03:00:17.448Z,15.67
2022-08-26T03:02:46.226Z,15.73
2022-08-26T03:05:14.275Z,17.40
2022-08-26T03:07:43.899Z,16.80
2022-08-26T03:10:13.755Z,19.47
2022-08-26T03:12:43.290Z,18.10
2022-08-26T03:15:18.557Z,20.83
2022-08-26T03:17:47.594Z,17.73
2022-08-26T03:20:17.430Z,16.70
2022-08-26T03:22:46.224Z,19.20
2022-08-26T03:25:17.150Z,18.57
2022-08-26T03:27:45.718Z,17.30
2022-08-26T03:30:32.200Z,16.63
2022-08-26T03:33:03.144Z,17.70
2022-08-26T03:35:32.609Z,16.43
2022-08-26T03:38:01.903Z,16.37
2022-08-26T03:40:30.108Z,17.20
2022-08-26T03:42:58.647Z,18.13
2022-08-26T03:45:27.823Z,18.23
2022-08-26T03:47:56.199Z,17.10
2022-08-26T03:50:28.231Z,16.47
2022-08-26T03:52:57.290Z,17.33
2022-08-26T03:55:27.369Z,16.90
2022-08-26T03:57:55.414Z,16.70
2022-08-26T04:00:23.737Z,17.07
2022-08-26T04:02:53.427Z,18.13
2022-08-26T04:05:23.231Z,16.83
2022-08-26T04:07:53.102Z,20.87
2022-08-26T04:10:28.703Z,18.40
2022-08-26T04:12:58.876Z,17.90
2022-08-26T04:15:28.098Z,19.37
2022-08-26T04:17:57.326Z,19.60
2022-08-26T04:20:26.105Z,18.27
2022-08-26T04:22:55.453Z,17.17
2022-08-26T04:25:24.299Z,16.83
2022-08-26T04:27:52.475Z,18.43
2022-08-26T04:30:21.294Z,18.20
2022-08-26T04:32:49.725Z,17.70
2022-08-26T04:35:17.828Z,16.63
2022-08-26T04:37:46.148Z,16.60
2022-08-26T04:40:15.719Z,16.70
2022-08-26T04:42:44.221Z,17.67
2022-08-26T04:45:14.140Z,17.43
2022-08-26T04:47:42.389Z,17.40
2022-08-26T04:50:11.030Z,21.23
2022-08-26T04:52:39.160Z,18.37
2022-08-26T04:55:08.532Z,18.73
2022-08-26T04:57:38.288Z,18.53
2022-08-26T05:00:10.500Z,17.23
2022-08-26T05:02:39.514Z,17.97
2022-08-26T05:05:09.156Z,16.87
2022-08-26T05:07:37.646Z,17.93
2022-08-26T05:10:08.762Z,22.10
2022-08-26T05:12:38.377Z,17.43
2022-08-26T05:15:08.021Z,18.93
2022-08-26T05:17:36.464Z,18.23
2022-08-26T05:20:06.183Z,16.83
2022-08-26T05:22:34.488Z,18.00
2022-08-26T05:25:02.712Z,16.93
2022-08-26T05:27:30.683Z,19.27
2022-08-26T05:30:00.260Z,20.13
2022-08-26T05:32:29.198Z,19.93
2022-08-26T05:34:58.541Z,18.50
2022-08-26T05:37:26.619Z,17.57
2022-08-26T05:39:54.694Z,17.00
2022-08-26T05:42:22.745Z,20.60
2022-08-26T05:44:55.704Z,17.00
2022-08-26T05:47:26.417Z,20.33
2022-08-26T05:49:56.207Z,18.40
2022-08-26T05:52:25.904Z,17.70
2022-08-26T05:54:54.326Z,18.60
2022-08-26T05:57:23.092Z,22.33
2022-08-26T05:59:51.726Z,19.17
2022-08-26T06:02:20.686Z,21.57
2022-08-26T06:04:50.072Z,18.70
2022-08-26T06:07:40.001Z,20.10
2022-08-26T06:10:31.131Z,20.33
2022-08-26T06:12:57.525Z,20.47
2022-08-26T06:15:26.052Z,20.83
2022-08-26T06:17:54.094Z,18.80
2022-08-26T06:20:23.484Z,18.47
2022-08-26T06:23:08.882Z,19.33
2022-08-26T06:25:40.227Z,18.23
2022-08-26T06:28:08.669Z,19.97
2022-08-26T06:30:41.715Z,24.87
2022-08-26T06:33:10.403Z,26.67
2022-08-26T06:35:42.372Z,25.83
2022-08-26T06:38:10.824Z,20.27
2022-08-26T06:40:42.627Z,19.23
2022-08-26T06:43:11.516Z,22.83
2022-08-26T06:45:40.061Z,18.33
2022-08-26T06:48:09.341Z,22.37
2022-08-26T06:50:37.928Z,19.47
2022-08-26T06:53:08.203Z,23.07
2022-08-26T06:55:41.537Z,23.23
2022-08-26T06:58:10.597Z,21.17
2022-08-26T07:00:39.810Z,19.67
2022-08-26T07:03:10.540Z,20.60
2022-08-26T07:05:38.731Z,20.83
2022-08-26T07:08:08.076Z,19.30
2022-08-26T07:10:37.068Z,23.77
2022-08-26T07:13:06.016Z,25.03
2022-08-26T07:15:37.170Z,20.77
2022-08-26T07:18:05.416Z,24.47
2022-08-26T07:20:33.364Z,20.07
2022-08-26T07:23:03.408Z,19.67
2022-08-26T07:25:32.788Z,19.87
2022-08-26T07:28:00.808Z,20.27
2022-08-26T07:30:31.290Z,20.33
2022-08-26T07:33:00.441Z,20.43
2022-08-26T07:35:28.491Z,19.57
2022-08-26T07:37:57.218Z,23.80
2022-08-26T07:40:26.089Z,22.30
2022-08-26T07:42:55.972Z,24.57
2022-08-26T07:45:24.658Z,23.00
2022-08-26T07:47:53.956Z,23.17
2022-08-26T07:50:22.428Z,23.87
2022-08-26T07:53:10.718Z,21.93
2022-08-26T07:55:39.021Z,21.52
2022-08-26T07:58:08.589Z,23.83
2022-08-26T08:00:36.562Z,21.48
2022-08-26T08:03:07.165Z,17.33
2022-08-26T08:05:36.846Z,23.20
2022-08-26T08:08:21.856Z,19.63
2022-08-26T08:10:56.987Z,16.60
2022-08-26T08:13:26.416Z,20.63
2022-08-26T08:15:54.496Z,17.92
2022-08-26T08:18:23.397Z,18.55
2022-08-26T08:21:04.864Z,17.90
2022-08-26T08:23:39.396Z,16.50
2022-08-26T08:26:09.715Z,19.15
2022-08-26T08:28:39.864Z,17.45
2022-08-26T08:31:10.015Z,15.82
2022-08-26T08:33:38.063Z,19.05
2022-08-26T08:36:09.306Z,19.08
2022-08-26T08:38:37.361Z,19.45
2022-08-26T08:41:05.620Z,15.13
2022-08-26T08:43:39.875Z,16.42
2022-08-26T08:46:13.941Z,16.80
2022-08-26T08:48:47.664Z,18.00
2022-08-26T08:51:22.960Z,15.85
2022-08-26T08:53:54.944Z,15.40
2022-08-26T08:56:30.263Z,22.35
2022-08-26T08:59:08.702Z,17.13
2022-08-26T09:01:52.267Z,15.10
2022-08-26T09:04:39.327Z,15.18
2022-08-26T09:07:14.470Z,12.07
2022-08-26T09:09:46.969Z,13.07
2022-08-26T09:12:29.608Z,14.98
2022-08-26T09:15:03.533Z,13.88
2022-08-26T09:17:44.891Z,12.45
2022-08-26T09:20:21.115Z,15.77
2022-08-26T09:22:49.520Z,14.07
2022-08-26T09:25:18.736Z,10.85
2022-08-26T09:27:50.496Z,17.55
2022-08-26T09:30:26.587Z,13.43
2022-08-26T09:33:10.176Z,13.60
2022-08-26T09:35:46.787Z,16.13
2022-08-26T09:38:26.768Z,14.07
2022-08-26T09:40:59.620Z,13.63
2022-08-26T09:43:29.223Z,16.58
2022-08-26T09:46:13.888Z,10.63
2022-08-26T09:48:43.768Z,12.55
2022-08-26T09:51:29.363Z,12.77
2022-08-26T09:53:59.560Z,13.18
2022-08-26T09:56:30.134Z,12.85
2022-08-26T09:58:58.780Z,15.05
2022-08-26T10:01:32.984Z,13.90
2022-08-26T10:04:09.894Z,12.82
2022-08-26T10:06:43.143Z,12.45
2022-08-26T10:09:17.312Z,12.48
2022-08-26T10:11:51.223Z,15.50
2022-08-26T10:14:25.090Z,16.48
2022-08-26T10:16:59.975Z,15.18
2022-08-26T10:19:41.755Z,12.43
2022-08-26T10:22:33.439Z,12.75
2022-08-26T10:25:04.893Z,14.20
2022-08-26T10:27:48.424Z,14.75
2022-08-26T10:30:22.646Z,13.70
2022-08-26T10:32:55.890Z,13.07
2022-08-26T10:35:27.108Z,12.20
2022-08-26T10:37:59.284Z,11.65
2022-08-26T10:40:30.812Z,14.15
2022-08-26T10:43:09.914Z,14.65
2022-08-26T10:45:43.843Z,20.17
2022-08-26T10:48:15.184Z,13.80
2022-08-26T10:50:47.352Z,16.10
2022-08-26T10:53:25.405Z,14.55
2022-08-26T10:56:01.861Z,14.50
2022-08-26T10:58:44.653Z,16.10
2022-08-26T11:01:40.852Z,12.25
2022-08-26T11:04:22.422Z,14.63
2022-08-26T11:07:46.143Z,9.20
2022-08-26T11:10:58.023Z,11.68
2022-08-26T11:14:02.304Z,16.95
2022-08-26T11:16:36.299Z,16.20
2022-08-26T11:19:13.370Z,15.75
2022-08-26T11:21:50.754Z,14.15
2022-08-26T11:25:01.685Z,12.80
2022-08-26T11:28:04.337Z,14.05
2022-08-26T11:30:57.717Z,13.45
2022-08-26T11:34:00.622Z,18.00
2022-08-26T11:37:06.660Z,14.55
2022-08-26T11:39:55.475Z,12.60
2022-08-26T11:42:33.222Z,13.88
2022-08-26T11:45:05.394Z,10.73
2022-08-26T11:47:34.213Z,12.90
2022-08-26T11:50:15.370Z,12.95
2022-08-26T11:52:53.469Z,12.98
2022-08-26T11:55:23.251Z,13.20
2022-08-26T11:57:55.547Z,15.63
2022-08-26T12:00:27.494Z,11.93
2022-08-26T12:03:03.590Z,11.55
2022-08-26T12:05:38.160Z,10.82
2022-08-26T12:08:10.960Z,13.45
2022-08-26T12:10:40.909Z,10.52
